TAF KSPS
KSPS 270520Z 2706/2806 17005KT P6SM BKN250 FM271400 20008KT P6SM BKN200 FM271500 21006G11KT P6SM OVC100 PROB30 2718/2719 4SM -RA OVC025 FM271900 21010G15KT P6SM OVC014 PROB30 2719/2724 4SM -RA OVC008=
METAR KSPS
WC KSPS
WS KSPS
WV KSPS